Terminal Aerodrome Forecast
Issued by NWS Milwaukee/Sullivan, WI

Home | Current Version | Previous Version | Text Only | Print | Product List | Glossary On
Versions: 1 2 3 4 5 6 7 8 9 10 11 12 13 14 15 16 17 18 19 20 21 22 23 24 25 26 27 28 29 30 31 32 33 34 35 36 37 38 39 40 41 42 43 44 45 46 47 48 49 50
183
FTUS43 KMKX 281021 AAA
TAFMKE
TAF AMD
KMKE 281021Z 2810/2912 32005KT P6SM SCT020 BKN050
      TEMPO 2811/2812 BKN020
     FM281400 35007KT P6SM VCSH SCT012 OVC020
     FM281600 01009KT P6SM VCSH SCT015 OVC035
     FM282000 02013KT P6SM VCSH SCT015 BKN070
     FM282200 02014G24KT P6SM VCSH SCT025 BKN070
     FM290300 01011G19KT P6SM FEW030 BKN080=

USA.gov is the U.S. government's official web portal to all federal, state and local government web resources and services.